Terminal Aerodrome Forecast
Issued by NWS Paducah, KY

Home | Current Version | Previous Version | Graphics & Text | Print | Product List | Glossary On
Versions: 1 2 3 4 5 6 7 8 9 10 11 12
000
FTUS43 KPAH 172300
TAFEVV
TAF
KEVV 172329Z 1800/1824 17003KT P6SM SCT250
     FM180900 VRB03KT P6SM SCT050 BKN150
     FM181500 36005KT P6SM SCT045=

USA.gov is the U.S. government's official web portal to all federal, state and local government web resources and services.